sensor_id;sensor_type;location;lat;lon;timestamp;pressure;altitude;pressure_sealevel;temperature;humidity
42289;BME280;30230;47.520;19.016;2023-01-26T00:00:49;99827.91;;;2.08;100.00
42289;BME280;30230;47.520;19.016;2023-01-26T00:02:50;99809.38;;;1.97;100.00
42289;BME280;30230;47.520;19.016;2023-01-26T00:04:50;99813.19;;;2.04;100.00
42289;BME280;30230;47.520;19.016;2023-01-26T00:06:50;99816.53;;;2.06;100.00
42289;BME280;30230;47.520;19.016;2023-01-26T00:08:53;99815.41;;;1.99;100.00
42289;BME280;30230;47.520;19.016;2023-01-26T00:10:54;99818.09;;;2.08;100.00
42289;BME280;30230;47.520;19.016;2023-01-26T00:12:54;99813.44;;;2.01;100.00
42289;BME280;30230;47.520;19.016;2023-01-26T00:14:54;99816.00;;;2.02;100.00
42289;BME280;30230;47.520;19.016;2023-01-26T00:16:55;99816.69;;;2.04;100.00
42289;BME280;30230;47.520;19.016;2023-01-26T00:18:55;99808.69;;;2.04;100.00
42289;BME280;30230;47.520;19.016;2023-01-26T00:21:00;99802.09;;;1.99;100.00
42289;BME280;30230;47.520;19.016;2023-01-26T00:23:01;99801.09;;;2.00;100.00
42289;BME280;30230;47.520;19.016;2023-01-26T00:25:01;99805.16;;;1.94;100.00
42289;BME280;30230;47.520;19.016;2023-01-26T00:27:01;99807.66;;;1.96;100.00
42289;BME280;30230;47.520;19.016;2023-01-26T00:29:02;99796.59;;;2.00;100.00
42289;BME280;30230;47.520;19.016;2023-01-26T00:31:09;99807.16;;;2.02;100.00
42289;BME280;30230;47.520;19.016;2023-01-26T00:33:10;99795.22;;;2.06;100.00
42289;BME280;30230;47.520;19.016;2023-01-26T00:35:11;99792.25;;;1.99;100.00
42289;BME280;30230;47.520;19.016;2023-01-26T00:37:11;99798.72;;;2.06;100.00
42289;BME280;30230;47.520;19.016;2023-01-26T00:39:12;99793.94;;;2.00;100.00
42289;BME280;30230;47.520;19.016;2023-01-26T00:41:13;99799.16;;;2.02;100.00
42289;BME280;30230;47.520;19.016;2023-01-26T00:43:33;99800.13;;;2.01;100.00
42289;BME280;30230;47.520;19.016;2023-01-26T00:45:34;99792.84;;;2.03;100.00
42289;BME280;30230;47.520;19.016;2023-01-26T00:47:35;99790.84;;;1.95;100.00
42289;BME280;30230;47.520;19.016;2023-01-26T00:49:35;99796.56;;;1.91;100.00
42289;BME280;30230;47.520;19.016;2023-01-26T00:51:36;99796.59;;;2.00;100.00
42289;BME280;30230;47.520;19.016;2023-01-26T00:53:36;99798.72;;;1.97;100.00
42289;BME280;30230;47.520;19.016;2023-01-26T00:55:37;99787.09;;;1.98;100.00
42289;BME280;30230;47.520;19.016;2023-01-26T00:57:37;99793.50;;;1.95;100.00
42289;BME280;30230;47.520;19.016;2023-01-26T00:59:38;99783.00;;;1.94;100.00
42289;BME280;30230;47.520;19.016;2023-01-26T01:01:38;99781.03;;;1.96;100.00
42289;BME280;30230;47.520;19.016;2023-01-26T01:03:39;99771.91;;;1.89;100.00
42289;BME280;30230;47.520;19.016;2023-01-26T01:05:39;99788.31;;;1.94;100.00
42289;BME280;30230;47.520;19.016;2023-01-26T01:07:39;99782.00;;;1.95;100.00
42289;BME280;30230;47.520;19.016;2023-01-26T01:09:40;99780.34;;;1.94;100.00
42289;BME280;30230;47.520;19.016;2023-01-26T01:11:40;99778.66;;;1.93;100.00
42289;BME280;30230;47.520;19.016;2023-01-26T01:13:42;99779.63;;;1.92;100.00
42289;BME280;30230;47.520;19.016;2023-01-26T01:15:43;99774.56;;;1.89;100.00
42289;BME280;30230;47.520;19.016;2023-01-26T01:17:43;99776.00;;;1.93;100.00
42289;BME280;30230;47.520;19.016;2023-01-26T01:19:45;99775.59;;;1.97;100.00
42289;BME280;30230;47.520;19.016;2023-01-26T01:21:45;99774.31;;;2.01;100.00
42289;BME280;30230;47.520;19.016;2023-01-26T01:23:46;99776.53;;;1.96;100.00
42289;BME280;30230;47.520;19.016;2023-01-26T01:25:46;99771.50;;;1.93;100.00
42289;BME280;30230;47.520;19.016;2023-01-26T01:27:47;99775.69;;;1.96;100.00
42289;BME280;30230;47.520;19.016;2023-01-26T01:29:49;99770.38;;;1.86;100.00
42289;BME280;30230;47.520;19.016;2023-01-26T01:31:49;99767.72;;;1.86;100.00
42289;BME280;30230;47.520;19.016;2023-01-26T01:33:51;99768.53;;;1.87;100.00
42289;BME280;30230;47.520;19.016;2023-01-26T01:36:00;99759.28;;;1.81;100.00
42289;BME280;30230;47.520;19.016;2023-01-26T01:38:01;99763.06;;;1.88;100.00
42289;BME280;30230;47.520;19.016;2023-01-26T01:40:01;99770.66;;;1.93;100.00
42289;BME280;30230;47.520;19.016;2023-01-26T01:42:02;99755.00;;;2.19;100.00
42289;BME280;30230;47.520;19.016;2023-01-26T01:44:23;99759.91;;;2.14;100.00
42289;BME280;30230;47.520;19.016;2023-01-26T01:46:32;99765.88;;;1.96;100.00
42289;BME280;30230;47.520;19.016;2023-01-26T01:50:53;99754.41;;;1.86;100.00
42289;BME280;30230;47.520;19.016;2023-01-26T01:52:54;99760.13;;;1.81;100.00
42289;BME280;30230;47.520;19.016;2023-01-26T01:54:59;99754.66;;;1.83;100.00
42289;BME280;30230;47.520;19.016;2023-01-26T01:57:06;99752.53;;;1.77;100.00
42289;BME280;30230;47.520;19.016;2023-01-26T01:59:14;99746.91;;;1.80;100.00
42289;BME280;30230;47.520;19.016;2023-01-26T02:01:20;99742.88;;;1.86;100.00
42289;BME280;30230;47.520;19.016;2023-01-26T02:03:21;99755.63;;;1.82;100.00
42289;BME280;30230;47.520;19.016;2023-01-26T02:05:25;99751.56;;;1.78;100.00
42289;BME280;30230;47.520;19.016;2023-01-26T02:07:27;99742.44;;;1.80;100.00
42289;BME280;30230;47.520;19.016;2023-01-26T02:09:33;99745.53;;;1.86;100.00
42289;BME280;30230;47.520;19.016;2023-01-26T02:11:53;99735.59;;;1.88;100.00
42289;BME280;30230;47.520;19.016;2023-01-26T02:13:55;99728.84;;;1.83;100.00
42289;BME280;30230;47.520;19.016;2023-01-26T02:15:58;99725.78;;;1.88;100.00
42289;BME280;30230;47.520;19.016;2023-01-26T02:18:02;99727.31;;;1.91;100.00
42289;BME280;30230;47.520;19.016;2023-01-26T02:24:36;99723.25;;;1.87;100.00
42289;BME280;30230;47.520;19.016;2023-01-26T02:26:39;99714.56;;;1.85;100.00
42289;BME280;30230;47.520;19.016;2023-01-26T02:28:40;99711.75;;;1.96;100.00
42289;BME280;30230;47.520;19.016;2023-01-26T02:30:41;99710.69;;;2.08;100.00
42289;BME280;30230;47.520;19.016;2023-01-26T02:32:42;99707.84;;;2.00;100.00
42289;BME280;30230;47.520;19.016;2023-01-26T02:34:42;99697.47;;;2.06;100.00
42289;BME280;30230;47.520;19.016;2023-01-26T02:36:43;99697.59;;;1.95;100.00
42289;BME280;30230;47.520;19.016;2023-01-26T02:38:48;99699.16;;;1.88;100.00
42289;BME280;30230;47.520;19.016;2023-01-26T02:41:19;99701.66;;;1.90;100.00
42289;BME280;30230;47.520;19.016;2023-01-26T02:43:39;99690.47;;;1.86;100.00
42289;BME280;30230;47.520;19.016;2023-01-26T02:45:40;99695.22;;;1.82;100.00
42289;BME280;30230;47.520;19.016;2023-01-26T02:47:41;99683.84;;;1.80;100.00
42289;BME280;30230;47.520;19.016;2023-01-26T02:49:43;99685.81;;;1.78;100.00
42289;BME280;30230;47.520;19.016;2023-01-26T02:51:47;99677.13;;;1.76;100.00
42289;BME280;30230;47.520;19.016;2023-01-26T02:53:48;99678.94;;;1.76;100.00
42289;BME280;30230;47.520;19.016;2023-01-26T02:55:48;99678.06;;;1.75;100.00
42289;BME280;30230;47.520;19.016;2023-01-26T02:57:50;99672.91;;;1.74;100.00
42289;BME280;30230;47.520;19.016;2023-01-26T02:59:51;99674.03;;;1.71;100.00
42289;BME280;30230;47.520;19.016;2023-01-26T03:01:52;99670.22;;;1.64;100.00
42289;BME280;30230;47.520;19.016;2023-01-26T03:03:54;99672.75;;;1.75;100.00
42289;BME280;30230;47.520;19.016;2023-01-26T03:05:54;99665.22;;;1.71;100.00
42289;BME280;30230;47.520;19.016;2023-01-26T03:07:55;99665.19;;;1.80;100.00
42289;BME280;30230;47.520;19.016;2023-01-26T03:09:55;99662.09;;;1.75;100.00
42289;BME280;30230;47.520;19.016;2023-01-26T03:11:57;99659.88;;;1.71;100.00
42289;BME280;30230;47.520;19.016;2023-01-26T03:13:58;99657.47;;;1.68;100.00
42289;BME280;30230;47.520;19.016;2023-01-26T03:15:58;99660.31;;;1.76;100.00
42289;BME280;30230;47.520;19.016;2023-01-26T03:18:09;99661.69;;;1.80;100.00
42289;BME280;30230;47.520;19.016;2023-01-26T03:20:32;99658.34;;;1.78;100.00
42289;BME280;30230;47.520;19.016;2023-01-26T03:22:51;99658.34;;;1.78;100.00
42289;BME280;30230;47.520;19.016;2023-01-26T03:25:12;99653.16;;;1.76;100.00
42289;BME280;30230;47.520;19.016;2023-01-26T03:27:39;99653.16;;;1.76;100.00
42289;BME280;30230;47.520;19.016;2023-01-26T03:29:40;99646.56;;;1.71;100.00
42289;BME280;30230;47.520;19.016;2023-01-26T03:31:41;99640.94;;;1.64;100.00
42289;BME280;30230;47.520;19.016;2023-01-26T03:33:41;99643.59;;;1.64;100.00
42289;BME280;30230;47.520;19.016;2023-01-26T03:35:42;99644.44;;;1.65;100.00
42289;BME280;30230;47.520;19.016;2023-01-26T03:37:43;99639.94;;;1.65;100.00
42289;BME280;30230;47.520;19.016;2023-01-26T03:39:43;99643.91;;;1.71;100.00
42289;BME280;30230;47.520;19.016;2023-01-26T03:42:03;99635.47;;;1.75;100.00
42289;BME280;30230;47.520;19.016;2023-01-26T03:44:22;99632.81;;;1.75;100.00
42289;BME280;30230;47.520;19.016;2023-01-26T03:46:41;99636.03;;;1.79;100.00
42289;BME280;30230;47.520;19.016;2023-01-26T03:49:00;99630.03;;;1.77;100.00
42289;BME280;30230;47.520;19.016;2023-01-26T03:51:18;99626.22;;;1.70;100.00
42289;BME280;30230;47.520;19.016;2023-01-26T03:53:37;99630.00;;;1.67;100.00
42289;BME280;30230;47.520;19.016;2023-01-26T03:55:57;99624.94;;;1.64;100.00
42289;BME280;30230;47.520;19.016;2023-01-26T03:58:15;99619.09;;;1.61;100.00
42289;BME280;30230;47.520;19.016;2023-01-26T04:00:16;99617.81;;;1.65;100.00
42289;BME280;30230;47.520;19.016;2023-01-26T04:02:16;99614.44;;;1.63;100.00
42289;BME280;30230;47.520;19.016;2023-01-26T04:04:35;99618.09;;;1.62;100.00
42289;BME280;30230;47.520;19.016;2023-01-26T04:06:54;99621.31;;;1.55;100.00
42289;BME280;30230;47.520;19.016;2023-01-26T04:09:13;99614.72;;;1.60;100.00
42289;BME280;30230;47.520;19.016;2023-01-26T04:11:14;99618.78;;;1.64;100.00
42289;BME280;30230;47.520;19.016;2023-01-26T04:13:14;99612.19;;;1.58;100.00
42289;BME280;30230;47.520;19.016;2023-01-26T04:15:35;99608.28;;;1.62;100.00
42289;BME280;30230;47.520;19.016;2023-01-26T04:17:54;99614.28;;;1.64;100.00
42289;BME280;30230;47.520;19.016;2023-01-26T04:20:13;99611.38;;;1.67;100.00
42289;BME280;30230;47.520;19.016;2023-01-26T04:22:39;99608.28;;;1.62;100.00
42289;BME280;30230;47.520;19.016;2023-01-26T04:24:42;99609.53;;;1.58;100.00
42289;BME280;30230;47.520;19.016;2023-01-26T04:26:43;99601.28;;;1.61;100.00
42289;BME280;30230;47.520;19.016;2023-01-26T04:28:43;99597.34;;;1.55;100.00
42289;BME280;30230;47.520;19.016;2023-01-26T04:30:44;99605.19;;;1.57;100.00
42289;BME280;30230;47.520;19.016;2023-01-26T04:32:44;99600.28;;;1.52;100.00
42289;BME280;30230;47.520;19.016;2023-01-26T04:34:45;99600.69;;;1.48;100.00
42289;BME280;30230;47.520;19.016;2023-01-26T04:36:45;99601.81;;;1.45;100.00
42289;BME280;30230;47.520;19.016;2023-01-26T04:38:46;99600.69;;;1.48;100.00
42289;BME280;30230;47.520;19.016;2023-01-26T04:40:55;99605.31;;;1.65;100.00
42289;BME280;30230;47.520;19.016;2023-01-26T04:42:55;99602.41;;;1.78;100.00
42289;BME280;30230;47.520;19.016;2023-01-26T04:44:56;99601.56;;;1.68;100.00
42289;BME280;30230;47.520;19.016;2023-01-26T04:46:56;99603.66;;;1.64;100.00
42289;BME280;30230;47.520;19.016;2023-01-26T04:48:57;99591.75;;;1.68;100.00
42289;BME280;30230;47.520;19.016;2023-01-26T04:51:01;99584.75;;;1.67;100.00
42289;BME280;30230;47.520;19.016;2023-01-26T04:53:01;99596.94;;;1.79;100.00
42289;BME280;30230;47.520;19.016;2023-01-26T04:55:02;99597.75;;;1.70;100.00
42289;BME280;30230;47.520;19.016;2023-01-26T04:57:02;99586.69;;;1.65;100.00
42289;BME280;30230;47.520;19.016;2023-01-26T04:59:05;99594.69;;;1.65;100.00
42289;BME280;30230;47.520;19.016;2023-01-26T05:01:07;99601.81;;;1.65;100.00
42289;BME280;30230;47.520;19.016;2023-01-26T05:03:07;99592.84;;;1.75;100.00
42289;BME280;30230;47.520;19.016;2023-01-26T05:05:08;99593.16;;;1.72;100.00
42289;BME280;30230;47.520;19.016;2023-01-26T05:07:08;99583.59;;;1.70;100.00
42289;BME280;30230;47.520;19.016;2023-01-26T05:09:09;99595.09;;;1.70;100.00
42289;BME280;30230;47.520;19.016;2023-01-26T05:11:10;99594.25;;;1.70;100.00
42289;BME280;30230;47.520;19.016;2023-01-26T05:13:10;99602.97;;;1.72;100.00
42289;BME280;30230;47.520;19.016;2023-01-26T05:15:11;99594.25;;;1.70;100.00
42289;BME280;30230;47.520;19.016;2023-01-26T05:17:11;99584.75;;;1.77;100.00
42289;BME280;30230;47.520;19.016;2023-01-26T05:19:12;99587.09;;;1.70;100.00
42289;BME280;30230;47.520;19.016;2023-01-26T05:21:12;99593.44;;;1.69;100.00
42289;BME280;30230;47.520;19.016;2023-01-26T05:23:13;99591.75;;;1.68;100.00
42289;BME280;30230;47.520;19.016;2023-01-26T05:25:13;99592.88;;;1.66;100.00
42289;BME280;30230;47.520;19.016;2023-01-26T05:27:14;99583.34;;;1.63;100.00
42289;BME280;30230;47.520;19.016;2023-01-26T05:29:20;99596.91;;;1.60;100.00
42289;BME280;30230;47.520;19.016;2023-01-26T05:31:20;99589.50;;;1.64;100.00
42289;BME280;30230;47.520;19.016;2023-01-26T05:33:21;99586.41;;;1.59;100.00
42289;BME280;30230;47.520;19.016;2023-01-26T05:35:21;99584.59;;;1.59;100.00
42289;BME280;30230;47.520;19.016;2023-01-26T05:37:25;99588.66;;;1.63;100.00
42289;BME280;30230;47.520;19.016;2023-01-26T05:39:26;99595.81;;;1.63;100.00
42289;BME280;30230;47.520;19.016;2023-01-26T05:41:26;99592.47;;;1.61;100.00
42289;BME280;30230;47.520;19.016;2023-01-26T05:43:27;99594.53;;;1.57;100.00
42289;BME280;30230;47.520;19.016;2023-01-26T05:45:27;99595.97;;;1.61;100.00
42289;BME280;30230;47.520;19.016;2023-01-26T05:47:28;99600.88;;;1.66;100.00
42289;BME280;30230;47.520;19.016;2023-01-26T05:49:29;99594.25;;;1.60;100.00
42289;BME280;30230;47.520;19.016;2023-01-26T05:51:29;99596.22;;;1.68;100.00
42289;BME280;30230;47.520;19.016;2023-01-26T05:53:29;99597.63;;;1.62;100.00
42289;BME280;30230;47.520;19.016;2023-01-26T05:55:30;99591.44;;;1.52;100.00
42289;BME280;30230;47.520;19.016;2023-01-26T05:57:30;99594.94;;;1.52;100.00
42289;BME280;30230;47.520;19.016;2023-01-26T05:59:31;99604.03;;;1.50;100.00
42289;BME280;30230;47.520;19.016;2023-01-26T06:01:31;99593.69;;;1.47;100.00
42289;BME280;30230;47.520;19.016;2023-01-26T06:03:32;99603.09;;;1.51;100.00
42289;BME280;30230;47.520;19.016;2023-01-26T06:05:32;99602.13;;;1.62;100.00
42289;BME280;30230;47.520;19.016;2023-01-26T06:07:33;99599.03;;;1.56;100.00
42289;BME280;30230;47.520;19.016;2023-01-26T06:09:33;99589.47;;;1.44;100.00
42289;BME280;30230;47.520;19.016;2023-01-26T06:11:33;99603.22;;;1.40;100.00
42289;BME280;30230;47.520;19.016;2023-01-26T06:13:34;99602.34;;;1.39;100.00
42289;BME280;30230;47.520;19.016;2023-01-26T06:15:34;99596.91;;;1.41;100.00
42289;BME280;30230;47.520;19.016;2023-01-26T06:17:35;99585.84;;;1.45;100.00
42289;BME280;30230;47.520;19.016;2023-01-26T06:19:35;99595.91;;;1.42;100.00
42289;BME280;30230;47.520;19.016;2023-01-26T06:21:36;99594.78;;;1.35;100.00
42289;BME280;30230;47.520;19.016;2023-01-26T06:23:37;99594.53;;;1.47;100.00
42289;BME280;30230;47.520;19.016;2023-01-26T06:25:37;99597.22;;;1.57;100.00
42289;BME280;30230;47.520;19.016;2023-01-26T06:27:40;99594.13;;;1.62;100.00
42289;BME280;30230;47.520;19.016;2023-01-26T06:29:41;99601.38;;;1.50;100.00
42289;BME280;30230;47.520;19.016;2023-01-26T06:31:43;99599.41;;;1.42;100.00
42289;BME280;30230;47.520;19.016;2023-01-26T06:33:43;99594.50;;;1.38;100.00
42289;BME280;30230;47.520;19.016;2023-01-26T06:35:44;99593.81;;;1.36;100.00
42289;BME280;30230;47.520;19.016;2023-01-26T06:37:47;99592.81;;;1.27;100.00
42289;BME280;30230;47.520;19.016;2023-01-26T06:39:47;99593.56;;;1.58;100.00
42289;BME280;30230;47.520;19.016;2023-01-26T06:41:48;99591.75;;;1.68;100.00
42289;BME280;30230;47.520;19.016;2023-01-26T06:43:48;99593.03;;;1.83;100.00
42289;BME280;30230;47.520;19.016;2023-01-26T06:45:49;99594.97;;;1.72;100.00
42289;BME280;30230;47.520;19.016;2023-01-26T06:47:50;99588.91;;;1.60;100.00
42289;BME280;30230;47.520;19.016;2023-01-26T06:49:50;99598.03;;;1.58;100.00
42289;BME280;30230;47.520;19.016;2023-01-26T06:53:57;99586.69;;;1.55;100.00
42289;BME280;30230;47.520;19.016;2023-01-26T06:55:58;99587.38;;;1.48;100.00
42289;BME280;30230;47.520;19.016;2023-01-26T06:57:58;99579.69;;;1.45;100.00
42289;BME280;30230;47.520;19.016;2023-01-26T06:59:59;99576.88;;;1.46;100.00
42289;BME280;30230;47.520;19.016;2023-01-26T07:01:59;99583.88;;;1.47;100.00
42289;BME280;30230;47.520;19.016;2023-01-26T07:04:00;99583.34;;;1.63;100.00
42289;BME280;30230;47.520;19.016;2023-01-26T07:06:00;99566.22;;;1.37;100.00
42289;BME280;30230;47.520;19.016;2023-01-26T07:08:00;99587.22;;;1.49;100.00
42289;BME280;30230;47.520;19.016;2023-01-26T07:10:03;99581.50;;;1.54;100.00
42289;BME280;30230;47.520;19.016;2023-01-26T07:12:06;99580.94;;;2.18;100.00
42289;BME280;30230;47.520;19.016;2023-01-26T07:14:06;99572.66;;;2.68;100.00
42289;BME280;30230;47.520;19.016;2023-01-26T07:16:10;99580.94;;;2.18;100.00
42289;BME280;30230;47.520;19.016;2023-01-26T07:18:10;99574.78;;;1.98;97.88
42289;BME280;30230;47.520;19.016;2023-01-26T07:20:11;99571.28;;;1.78;96.74
42289;BME280;30230;47.520;19.016;2023-01-26T07:22:13;99579.00;;;1.72;96.14
42289;BME280;30230;47.520;19.016;2023-01-26T07:24:13;99574.38;;;1.74;97.06
42289;BME280;30230;47.520;19.016;2023-01-26T07:26:13;99576.63;;;1.88;96.78
42289;BME280;30230;47.520;19.016;2023-01-26T07:28:14;99579.69;;;1.83;95.01
42289;BME280;30230;47.520;19.016;2023-01-26T07:30:15;99572.00;;;1.71;94.99
42289;BME280;30230;47.520;19.016;2023-01-26T07:32:15;99570.84;;;1.64;94.75
42289;BME280;30230;47.520;19.016;2023-01-26T07:34:16;99569.34;;;1.61;95.79
42289;BME280;30230;47.520;19.016;2023-01-26T07:36:16;99565.38;;;1.65;94.78
42289;BME280;30230;47.520;19.016;2023-01-26T07:38:17;99563.56;;;1.75;95.70
42289;BME280;30230;47.520;19.016;2023-01-26T07:40:17;99559.66;;;1.70;93.74
42289;BME280;30230;47.520;19.016;2023-01-26T07:42:18;99561.03;;;1.64;94.44
42289;BME280;30230;47.520;19.016;2023-01-26T07:44:18;99571.00;;;1.72;94.86
42289;BME280;30230;47.520;19.016;2023-01-26T07:46:19;99561.91;;;1.84;93.90
42289;BME280;30230;47.520;19.016;2023-01-26T07:48:21;99565.41;;;1.85;93.43
42289;BME280;30230;47.520;19.016;2023-01-26T07:50:22;99557.13;;;1.68;92.96
42289;BME280;30230;47.520;19.016;2023-01-26T07:52:24;99565.28;;;1.76;93.67
42289;BME280;30230;47.520;19.016;2023-01-26T07:54:25;99569.47;;;1.79;90.37
42289;BME280;30230;47.520;19.016;2023-01-26T07:56:26;99564.84;;;1.71;90.30
42289;BME280;30230;47.520;19.016;2023-01-26T07:58:26;99572.00;;;1.71;91.92
42289;BME280;30230;47.520;19.016;2023-01-26T08:00:26;99565.94;;;1.59;92.19
42289;BME280;30230;47.520;19.016;2023-01-26T08:02:27;99565.53;;;1.54;93.48
42289;BME280;30230;47.520;19.016;2023-01-26T08:04:27;99571.28;;;1.59;92.83
42289;BME280;30230;47.520;19.016;2023-01-26T08:06:28;99547.41;;;2.25;100.00
42289;BME280;30230;47.520;19.016;2023-01-26T08:08:28;99552.97;;;3.34;100.00
42289;BME280;30230;47.520;19.016;2023-01-26T08:10:29;99557.19;;;3.90;100.00
42289;BME280;30230;47.520;19.016;2023-01-26T08:12:30;99553.13;;;3.32;93.64
42289;BME280;30230;47.520;19.016;2023-01-26T08:14:31;99559.78;;;3.01;88.46
42289;BME280;30230;47.520;19.016;2023-01-26T08:16:31;99553.56;;;2.73;88.80
42289;BME280;30230;47.520;19.016;2023-01-26T08:18:32;99549.25;;;2.62;89.85
42289;BME280;30230;47.520;19.016;2023-01-26T08:20:32;99554.19;;;2.57;86.28
42289;BME280;30230;47.520;19.016;2023-01-26T08:22:32;99564.63;;;2.31;87.89
42289;BME280;30230;47.520;19.016;2023-01-26T08:24:33;99555.41;;;2.06;89.24
42289;BME280;30230;47.520;19.016;2023-01-26T08:26:33;99560.91;;;1.95;91.10
42289;BME280;30230;47.520;19.016;2023-01-26T08:28:34;99566.13;;;1.87;92.29
42289;BME280;30230;47.520;19.016;2023-01-26T08:30:35;99546.63;;;1.86;93.05
42289;BME280;30230;47.520;19.016;2023-01-26T08:32:36;99551.97;;;1.76;93.83
42289;BME280;30230;47.520;19.016;2023-01-26T08:34:36;99556.72;;;1.73;94.20
42289;BME280;30230;47.520;19.016;2023-01-26T08:36:38;99559.78;;;1.78;94.12
42289;BME280;30230;47.520;19.016;2023-01-26T08:38:38;99559.22;;;1.74;92.66
42289;BME280;30230;47.520;19.016;2023-01-26T08:40:39;99563.03;;;1.72;93.57
42289;BME280;30230;47.520;19.016;2023-01-26T08:42:39;99560.63;;;1.78;93.08
42289;BME280;30230;47.520;19.016;2023-01-26T08:44:40;99568.22;;;1.83;92.43
42289;BME280;30230;47.520;19.016;2023-01-26T08:46:42;99555.47;;;1.87;92.62
42289;BME280;30230;47.520;19.016;2023-01-26T08:48:43;99560.78;;;1.87;92.48
42289;BME280;30230;47.520;19.016;2023-01-26T08:50:44;99557.28;;;1.76;90.90
42289;BME280;30230;47.520;19.016;2023-01-26T08:52:44;99553.63;;;1.77;92.09
42289;BME280;30230;47.520;19.016;2023-01-26T08:54:45;99562.03;;;1.82;92.46
42289;BME280;30230;47.520;19.016;2023-01-26T08:56:45;99559.38;;;1.82;91.90
42289;BME280;30230;47.520;19.016;2023-01-26T08:58:47;99556.41;;;1.86;92.21
42289;BME280;30230;47.520;19.016;2023-01-26T09:00:47;99550.66;;;1.80;92.05
42289;BME280;30230;47.520;19.016;2023-01-26T09:02:48;99568.78;;;1.87;92.86
42289;BME280;30230;47.520;19.016;2023-01-26T09:04:48;99559.50;;;1.91;92.27
42289;BME280;30230;47.520;19.016;2023-01-26T09:06:49;99564.41;;;1.86;92.52
42289;BME280;30230;47.520;19.016;2023-01-26T09:08:49;99560.63;;;1.88;92.24
42289;BME280;30230;47.520;19.016;2023-01-26T09:10:49;99556.97;;;1.99;91.21
42289;BME280;30230;47.520;19.016;2023-01-26T09:12:50;99554.72;;;2.04;90.69
42289;BME280;30230;47.520;19.016;2023-01-26T09:14:50;99559.78;;;2.07;91.58
42289;BME280;30230;47.520;19.016;2023-01-26T09:16:51;99564.25;;;2.06;90.80
42289;BME280;30230;47.520;19.016;2023-01-26T09:18:52;99563.97;;;2.09;90.44
42289;BME280;30230;47.520;19.016;2023-01-26T09:20:53;99564.41;;;2.05;88.61
42289;BME280;30230;47.520;19.016;2023-01-26T09:22:55;99561.06;;;2.03;89.74
42289;BME280;30230;47.520;19.016;2023-01-26T09:24:56;99559.22;;;2.13;90.49
42289;BME280;30230;47.520;19.016;2023-01-26T09:26:56;99564.53;;;2.13;88.13
42289;BME280;30230;47.520;19.016;2023-01-26T09:28:56;99550.75;;;2.27;88.65
42289;BME280;30230;47.520;19.016;2023-01-26T09:31:05;99554.13;;;2.39;85.29
42289;BME280;30230;47.520;19.016;2023-01-26T09:33:05;99552.63;;;2.17;87.21
42289;BME280;30230;47.520;19.016;2023-01-26T09:35:06;99549.81;;;2.09;88.42
42289;BME280;30230;47.520;19.016;2023-01-26T09:37:10;99552.06;;;2.04;88.30
42289;BME280;30230;47.520;19.016;2023-01-26T09:39:11;99548.56;;;2.13;88.99
42289;BME280;30230;47.520;19.016;2023-01-26T09:41:26;99549.25;;;1.96;88.16
42289;BME280;30230;47.520;19.016;2023-01-26T09:43:55;99545.50;;;1.89;89.10
42289;BME280;30230;47.520;19.016;2023-01-26T09:50:59;99537.91;;;1.94;90.12
42289;BME280;30230;47.520;19.016;2023-01-26T09:53:06;99529.50;;;1.89;90.23
42289;BME280;30230;47.520;19.016;2023-01-26T09:55:14;99530.34;;;1.89;90.79
42289;BME280;30230;47.520;19.016;2023-01-26T09:57:40;99524.75;;;1.82;90.34
42289;BME280;30230;47.520;19.016;2023-01-26T09:59:50;99524.44;;;1.95;91.07
42289;BME280;30230;47.520;19.016;2023-01-26T10:02:00;99523.50;;;1.77;89.27
42289;BME280;30230;47.520;19.016;2023-01-26T10:04:32;99514.63;;;2.05;90.19
42289;BME280;30230;47.520;19.016;2023-01-26T10:06:36;99511.00;;;1.97;89.78
42289;BME280;30230;47.520;19.016;2023-01-26T10:08:37;99514.34;;;1.99;90.20
42289;BME280;30230;47.520;19.016;2023-01-26T10:10:41;99500.91;;;1.91;90.09
42289;BME280;30230;47.520;19.016;2023-01-26T10:12:46;99505.41;;;1.80;90.16
42289;BME280;30230;47.520;19.016;2023-01-26T10:14:57;99511.13;;;1.86;90.20
42289;BME280;30230;47.520;19.016;2023-01-26T10:16:59;99499.81;;;1.83;90.15
42289;BME280;30230;47.520;19.016;2023-01-26T10:19:08;99500.19;;;1.98;89.48
42289;BME280;30230;47.520;19.016;2023-01-26T10:21:11;99496.28;;;1.93;90.28
42289;BME280;30230;47.520;19.016;2023-01-26T10:23:27;99496.03;;;1.86;90.54
42289;BME280;30230;47.520;19.016;2023-01-26T10:25:39;99487.16;;;1.95;89.22
42289;BME280;30230;47.520;19.016;2023-01-26T10:27:41;99484.66;;;1.84;90.20
42289;BME280;30230;47.520;19.016;2023-01-26T10:29:42;99483.25;;;1.90;89.58
42289;BME280;30230;47.520;19.016;2023-01-26T10:31:43;99473.44;;;1.80;88.42
42289;BME280;30230;47.520;19.016;2023-01-26T10:35:55;99458.44;;;1.89;87.91
42289;BME280;30230;47.520;19.016;2023-01-26T10:37:56;99467.25;;;1.90;87.89
42289;BME280;30230;47.520;19.016;2023-01-26T10:40:02;99469.25;;;1.88;87.66
42289;BME280;30230;47.520;19.016;2023-01-26T10:42:04;99458.28;;;1.91;86.98
42289;BME280;30230;47.520;19.016;2023-01-26T10:44:25;99461.50;;;1.94;87.02
42289;BME280;30230;47.520;19.016;2023-01-26T10:48:26;99458.25;;;2.00;88.55
42289;BME280;30230;47.520;19.016;2023-01-26T10:50:28;99468.91;;;2.10;86.89
42289;BME280;30230;47.520;19.016;2023-01-26T10:52:30;99459.09;;;2.01;87.79
42289;BME280;30230;47.520;19.016;2023-01-26T10:54:32;99458.25;;;2.00;87.32
42289;BME280;30230;47.520;19.016;2023-01-26T10:56:36;99455.31;;;2.03;86.40
42289;BME280;30230;47.520;19.016;2023-01-26T10:58:45;99453.50;;;2.04;87.37
42289;BME280;30230;47.520;19.016;2023-01-26T11:00:54;99456.31;;;2.02;85.86
42289;BME280;30230;47.520;19.016;2023-01-26T11:07:35;99444.81;;;2.02;86.03
42289;BME280;30230;47.520;19.016;2023-01-26T11:09:37;99451.00;;;1.93;85.40